Time;durP1;ratioP1;P1;durP2;ratioP2;P2;SDS_P1;SDS_P2;PMS_P1;PMS_P2;Temp;Humidity;BMP_temperature;BMP_pressure;BME280_temperature;BME280_humidity;BME280_pressure;Samples;Min_cycle;Max_cycle;Signal;HPM_P1;HPM_P2
2022/09/23 00:00:10;;;;;;;18.35;16.30;;;9.90;99.90;;;;;;4978830;28;89916;-30
2022/09/23 00:02:36;;;;;;;19.15;16.42;;;9.90;99.90;;;;;;4978425;28;89666;-32
2022/09/23 00:05:02;;;;;;;19.35;17.50;;;9.80;99.90;;;;;;4978824;28;89723;-31
2022/09/23 00:07:28;;;;;;;20.08;18.02;;;9.90;99.90;;;;;;4977538;28;89825;-31
2022/09/23 00:09:54;;;;;;;18.48;16.55;;;9.80;99.90;;;;;;4978608;28;89949;-34
2022/09/23 00:12:20;;;;;;;21.05;18.58;;;9.80;99.90;;;;;;4978348;28;89604;-30
2022/09/23 00:14:46;;;;;;;19.52;17.58;;;9.80;99.90;;;;;;4978524;28;89381;-30
2022/09/23 00:17:12;;;;;;;17.90;16.40;;;9.80;99.90;;;;;;4978559;28;89227;-34
2022/09/23 00:19:39;;;;;;;18.60;17.08;;;9.80;99.90;;;;;;4978264;28;90855;-31
2022/09/23 00:22:05;;;;;;;18.58;16.98;;;9.70;99.90;;;;;;4977543;28;89853;-34
2022/09/23 00:24:31;;;;;;;19.80;16.70;;;9.70;99.90;;;;;;4978767;28;89562;-29
2022/09/23 00:26:58;;;;;;;15.90;14.32;;;9.60;99.90;;;;;;4978482;28;87909;-31
2022/09/23 00:29:23;;;;;;;17.70;16.27;;;9.60;99.90;;;;;;4976523;28;90328;-31
2022/09/23 00:31:49;;;;;;;18.13;16.25;;;9.60;99.90;;;;;;4977597;28;90839;-32
2022/09/23 00:34:15;;;;;;;17.40;15.82;;;9.60;99.90;;;;;;4977518;28;91307;-29
2022/09/23 00:36:41;;;;;;;20.80;18.65;;;9.60;99.90;;;;;;4978296;28;89825;-33
2022/09/23 00:39:08;;;;;;;20.95;17.33;;;9.60;99.90;;;;;;4960777;28;91162;-31
2022/09/23 00:41:34;;;;;;;18.90;16.88;;;9.60;99.90;;;;;;4977585;28;89823;-32
2022/09/23 00:44:00;;;;;;;18.83;17.02;;;9.60;99.90;;;;;;5009107;22;89707;-32
2022/09/23 00:46:33;;;;;;;19.80;17.98;;;9.60;99.90;;;;;;4976099;28;89633;-31
2022/09/23 00:49:05;;;;;;;18.13;16.33;;;9.60;99.90;;;;;;4978696;28;90184;-31
2022/09/23 00:51:38;;;;;;;18.83;17.10;;;9.60;99.90;;;;;;4978135;28;89501;-33
2022/09/23 00:54:05;;;;;;;18.98;16.95;;;9.50;99.90;;;;;;4977446;28;90293;-30
2022/09/23 00:56:32;;;;;;;18.33;16.67;;;9.50;99.90;;;;;;4976925;28;89647;-30
2022/09/23 00:58:59;;;;;;;20.88;18.42;;;9.40;99.90;;;;;;4977900;28;90333;-31
2022/09/23 01:01:25;;;;;;;17.15;15.55;;;9.40;99.90;;;;;;4977779;28;90003;-32
2022/09/23 01:03:53;;;;;;;19.00;17.38;;;9.40;99.90;;;;;;4978275;28;89062;-31
2022/09/23 01:06:19;;;;;;;18.70;16.90;;;9.30;99.90;;;;;;4978233;28;88950;-35
2022/09/23 01:08:46;;;;;;;19.08;17.10;;;9.30;99.90;;;;;;4977796;28;90138;-31
2022/09/23 01:11:21;;;;;;;19.52;17.75;;;9.30;99.90;;;;;;4976892;28;90225;-32
2022/09/23 01:14:11;;;;;;;20.17;18.02;;;9.30;99.90;;;;;;4978366;28;89053;-30
2022/09/23 01:16:57;;;;;;;20.27;18.38;;;9.20;99.90;;;;;;4978208;28;90085;-32
2022/09/23 01:19:55;;;;;;;19.27;17.38;;;9.20;99.90;;;;;;4977634;28;90362;-29
2022/09/23 01:22:50;;;;;;;18.90;17.02;;;9.20;99.90;;;;;;4977141;28;90854;-31
2022/09/23 01:25:39;;;;;;;18.35;16.65;;;9.20;99.90;;;;;;4978081;28;90440;-30
2022/09/23 01:28:23;;;;;;;20.98;16.80;;;9.20;99.90;;;;;;4978569;28;89460;-32
2022/09/23 01:31:20;;;;;;;19.23;17.55;;;9.10;99.90;;;;;;4977493;28;90299;-32
2022/09/23 01:34:01;;;;;;;17.65;15.95;;;9.10;99.90;;;;;;4977391;28;90611;-33
2022/09/23 01:36:39;;;;;;;17.95;16.20;;;9.10;99.90;;;;;;4971460;28;89232;-30
2022/09/23 01:39:30;;;;;;;19.10;17.00;;;9.10;99.90;;;;;;4978178;28;88329;-31
2022/09/23 01:42:25;;;;;;;23.38;16.92;;;9.10;99.90;;;;;;4980929;28;90141;-31
2022/09/23 01:44:56;;;;;;;17.30;15.45;;;9.10;99.90;;;;;;4980249;28;89140;-31
2022/09/23 01:47:29;;;;;;;17.52;15.73;;;9.10;99.90;;;;;;4980201;28;89654;-30
2022/09/23 01:53:04;;;;;;;22.65;16.83;;;9.10;99.90;;;;;;4980411;28;90113;-30
2022/09/23 01:55:36;;;;;;;18.52;16.80;;;9.10;99.90;;;;;;4980902;28;91097;-30
2022/09/23 01:58:13;;;;;;;16.13;14.63;;;9.10;99.90;;;;;;4980962;28;89530;-32
2022/09/23 02:00:42;;;;;;;17.52;15.75;;;9.10;99.90;;;;;;4980749;28;89266;-30
2022/09/23 02:03:26;;;;;;;16.50;15.02;;;9.10;99.90;;;;;;4980188;28;91111;-30
2022/09/23 02:06:10;;;;;;;17.38;15.88;;;9.10;99.90;;;;;;4980652;28;89555;-31
2022/09/23 02:08:45;;;;;;;16.95;15.25;;;9.00;99.90;;;;;;4981032;28;89398;-31
2022/09/23 02:11:14;;;;;;;15.80;14.32;;;9.00;99.90;;;;;;4962491;28;89958;-30
2022/09/23 02:13:51;;;;;;;16.25;14.60;;;9.00;99.90;;;;;;4979863;28;89823;-35
2022/09/23 02:16:25;;;;;;;17.23;15.63;;;9.00;99.90;;;;;;4979955;28;90824;-35
2022/09/23 02:19:05;;;;;;;16.98;15.25;;;9.00;99.90;;;;;;4979774;28;90083;-32
2022/09/23 02:21:39;;;;;;;17.13;15.25;;;9.00;99.90;;;;;;4980475;28;89150;-32
2022/09/23 02:24:11;;;;;;;17.83;15.70;;;8.90;99.90;;;;;;4961585;28;89979;-33
2022/09/23 02:26:48;;;;;;;17.10;15.50;;;8.90;99.90;;;;;;4979574;28;90529;-31
2022/09/23 02:29:48;;;;;;;16.38;14.77;;;8.90;99.90;;;;;;4979949;28;89478;-34
2022/09/23 02:32:50;;;;;;;17.33;15.73;;;8.90;99.90;;;;;;4979687;28;89010;-30
2022/09/23 02:35:32;;;;;;;17.20;15.73;;;8.90;99.90;;;;;;4945225;28;90820;-29
2022/09/23 02:38:28;;;;;;;20.77;18.77;;;8.90;99.90;;;;;;4979875;28;90126;-33
2022/09/23 02:41:21;;;;;;;17.80;16.02;;;8.90;99.90;;;;;;4980122;28;89981;-31
2022/09/23 02:44:07;;;;;;;19.52;17.67;;;8.90;99.90;;;;;;4979262;28;89931;-30
2022/09/23 02:46:34;;;;;;;24.00;17.30;;;8.90;99.90;;;;;;4979839;28;90612;-30
2022/09/23 02:49:12;;;;;;;20.30;18.40;;;8.90;99.90;;;;;;4980149;28;89838;-31
2022/09/23 02:51:39;;;;;;;20.08;18.20;;;8.90;99.90;;;;;;4980130;28;89679;-29
2022/09/23 02:54:09;;;;;;;19.55;17.65;;;8.90;99.90;;;;;;4979858;28;87889;-30
2022/09/23 02:56:36;;;;;;;19.38;17.38;;;8.90;99.90;;;;;;4979712;28;89863;-30
2022/09/23 02:59:03;;;;;;;20.58;18.77;;;8.80;99.90;;;;;;4978947;28;90122;-31
2022/09/23 03:01:55;;;;;;;19.73;16.98;;;8.80;99.90;;;;;;4979891;28;88619;-30
2022/09/23 03:04:39;;;;;;;20.15;18.15;;;8.80;99.90;;;;;;4979663;28;89410;-30
2022/09/23 03:07:23;;;;;;;17.88;16.23;;;8.70;99.90;;;;;;4980362;28;90070;-32
2022/09/23 03:10:15;;;;;;;18.13;16.38;;;8.60;99.90;;;;;;4979431;28;90693;-32
2022/09/23 03:12:46;;;;;;;18.27;16.48;;;8.60;99.90;;;;;;4972370;28;90191;-32
2022/09/23 03:15:51;;;;;;;19.02;17.23;;;8.50;99.90;;;;;;4979754;28;88528;-31
2022/09/23 03:18:39;;;;;;;16.48;14.98;;;8.50;99.90;;;;;;4979430;28;89880;-34
2022/09/23 03:21:21;;;;;;;28.10;16.52;;;8.40;99.90;;;;;;4979348;28;89878;-30
2022/09/23 03:23:47;;;;;;;19.08;16.88;;;8.40;99.90;;;;;;4979375;28;89278;-31
2022/09/23 03:26:44;;;;;;;20.73;17.58;;;8.40;99.90;;;;;;4979555;28;89252;-35
2022/09/23 03:29:11;;;;;;;19.23;17.30;;;8.40;99.90;;;;;;4966867;28;92043;-30
2022/09/23 03:31:41;;;;;;;18.77;17.08;;;8.30;99.90;;;;;;4978852;28;89585;-33
2022/09/23 03:34:18;;;;;;;18.52;16.73;;;8.30;99.90;;;;;;4978868;28;89866;-30
2022/09/23 03:37:06;;;;;;;19.80;15.82;;;8.30;99.90;;;;;;4978425;28;90396;-30
2022/09/23 03:39:47;;;;;;;17.23;15.65;;;8.20;99.90;;;;;;4979176;28;88911;-31
2022/09/23 03:42:23;;;;;;;21.75;15.93;;;8.20;99.90;;;;;;4978502;28;89958;-33
2022/09/23 03:44:53;;;;;;;17.73;16.05;;;8.10;99.90;;;;;;4979260;28;89863;-30
2022/09/23 03:47:19;;;;;;;16.80;15.02;;;8.10;99.90;;;;;;4978496;28;89689;-30
2022/09/23 03:49:48;;;;;;;18.00;16.10;;;8.10;99.90;;;;;;4978775;28;90182;-33
2022/09/23 03:52:17;;;;;;;;;;;8.10;99.90;;;;;;4979441;28;90127;-30
2022/09/23 03:54:43;;;;;;;17.00;15.15;;;8.10;99.90;;;;;;4980780;28;88842;-30
2022/09/23 03:57:10;;;;;;;16.65;15.07;;;8.00;99.90;;;;;;4978365;28;88077;-29
2022/09/23 03:59:36;;;;;;;16.77;15.15;;;8.00;99.90;;;;;;4978434;28;90406;-30
2022/09/23 04:02:02;;;;;;;17.48;15.70;;;8.00;99.90;;;;;;4977734;28;90041;-31
2022/09/23 04:04:31;;;;;;;18.55;16.73;;;8.00;99.90;;;;;;4964507;28;90084;-34
2022/09/23 04:06:56;;;;;;;16.92;15.15;;;7.90;99.90;;;;;;4979206;28;88305;-30
2022/09/23 04:09:22;;;;;;;17.60;15.27;;;7.90;99.90;;;;;;4978745;28;89564;-30
2022/09/23 04:11:49;;;;;;;17.83;16.08;;;7.90;99.90;;;;;;4973001;28;90938;-31
2022/09/23 04:14:15;;;;;;;18.10;16.27;;;7.90;99.90;;;;;;4970537;28;90752;-32
2022/09/23 04:16:41;;;;;;;17.27;15.50;;;7.90;99.90;;;;;;4979070;28;89445;-33
2022/09/23 04:19:09;;;;;;;16.73;15.10;;;7.90;99.90;;;;;;4978880;28;90393;-31
2022/09/23 04:21:34;;;;;;;16.67;15.00;;;7.90;99.90;;;;;;4978560;28;90455;-29
2022/09/23 04:24:00;;;;;;;17.33;15.18;;;7.90;99.90;;;;;;4978289;28;89449;-29
2022/09/23 04:26:26;;;;;;;15.05;13.60;;;7.80;99.90;;;;;;4977724;28;90086;-34
2022/09/23 04:28:53;;;;;;;17.08;15.32;;;7.80;99.90;;;;;;4978536;28;90182;-29
2022/09/23 04:31:18;;;;;;;17.25;15.48;;;7.90;99.90;;;;;;4977711;28;89739;-30
2022/09/23 04:33:44;;;;;;;18.15;16.23;;;7.80;99.90;;;;;;4977678;28;89620;-34
2022/09/23 04:36:10;;;;;;;17.35;15.63;;;7.90;99.90;;;;;;4978752;28;89506;-31
2022/09/23 04:38:35;;;;;;;20.90;17.52;;;7.90;99.90;;;;;;4978187;28;88950;-31
2022/09/23 04:41:02;;;;;;;21.48;19.25;;;7.90;99.90;;;;;;4978462;28;89792;-31
2022/09/23 04:43:27;;;;;;;20.45;17.98;;;7.90;99.90;;;;;;4977865;28;89480;-30
2022/09/23 04:46:00;;;;;;;19.20;17.23;;;7.90;99.90;;;;;;4978467;28;89420;-33
2022/09/23 04:48:27;;;;;;;19.02;16.77;;;7.90;99.90;;;;;;4977977;28;90081;-33
2022/09/23 04:50:53;;;;;;;19.95;16.45;;;7.90;99.90;;;;;;4977168;28;90546;-33
2022/09/23 04:53:20;;;;;;;24.20;16.70;;;7.90;99.90;;;;;;4978269;28;91021;-32
2022/09/23 04:55:46;;;;;;;24.23;16.95;;;8.00;99.90;;;;;;4978317;28;89088;-31
2022/09/23 04:58:11;;;;;;;16.08;14.38;;;8.00;99.90;;;;;;4977903;28;90207;-35
2022/09/23 05:00:37;;;;;;;18.10;14.70;;;8.00;99.90;;;;;;4977858;28;89683;-32
2022/09/23 05:03:03;;;;;;;19.73;16.17;;;8.00;99.90;;;;;;4977955;28;89568;-31
2022/09/23 05:05:29;;;;;;;19.33;16.15;;;8.00;99.90;;;;;;4978190;28;87672;-30
2022/09/23 05:07:55;;;;;;;22.70;17.30;;;8.10;99.90;;;;;;4977412;28;90185;-31
2022/09/23 05:10:21;;;;;;;17.58;15.88;;;8.10;99.90;;;;;;4963746;28;89337;-33
2022/09/23 05:12:48;;;;;;;18.88;16.95;;;8.10;99.90;;;;;;4981304;28;89433;-32
2022/09/23 05:15:14;;;;;;;15.13;13.48;;;8.10;99.90;;;;;;4980429;28;88917;-33
2022/09/23 05:17:41;;;;;;;17.58;15.63;;;8.20;99.90;;;;;;4981365;28;90085;-31
2022/09/23 05:20:08;;;;;;;21.75;15.80;;;8.20;99.90;;;;;;4981306;28;90568;-28
2022/09/23 05:22:34;;;;;;;21.63;17.80;;;8.20;99.90;;;;;;4980517;28;90105;-33
2022/09/23 05:25:01;;;;;;;18.70;15.90;;;8.20;99.90;;;;;;4981250;28;88557;-29
2022/09/23 05:27:27;;;;;;;17.45;15.73;;;8.20;99.90;;;;;;4980635;28;91447;-29
2022/09/23 05:29:52;;;;;;;16.77;15.18;;;8.20;99.90;;;;;;4981396;28;89787;-31
2022/09/23 05:32:18;;;;;;;18.30;16.48;;;8.20;99.90;;;;;;4981293;28;89575;-31
2022/09/23 05:34:44;;;;;;;19.33;16.17;;;8.20;99.90;;;;;;4980801;28;88667;-30
2022/09/23 05:37:10;;;;;;;17.25;15.60;;;8.20;99.90;;;;;;4980706;28;91032;-33
2022/09/23 05:39:35;;;;;;;17.08;14.90;;;8.20;99.90;;;;;;4980183;28;90626;-31
2022/09/23 05:42:01;;;;;;;16.98;15.20;;;8.10;99.90;;;;;;4980458;28;90148;-33
2022/09/23 05:44:27;;;;;;;17.10;15.25;;;8.00;99.90;;;;;;4980418;28;89420;-31
2022/09/23 05:46:52;;;;;;;18.45;16.73;;;7.90;99.90;;;;;;4981042;28;89499;-30
2022/09/23 05:49:18;;;;;;;17.48;15.55;;;7.90;99.90;;;;;;4980741;28;90640;-32
2022/09/23 05:51:43;;;;;;;19.10;16.25;;;7.80;99.90;;;;;;4980172;28;89441;-33
2022/09/23 05:54:09;;;;;;;19.17;17.02;;;7.80;99.90;;;;;;4967560;28;87678;-31
2022/09/23 05:56:36;;;;;;;18.65;15.13;;;7.70;99.90;;;;;;4942070;28;91231;-30
2022/09/23 05:59:03;;;;;;;16.67;14.93;;;7.70;99.90;;;;;;4940281;28;89811;-30
2022/09/23 06:01:32;;;;;;;18.92;17.02;;;7.70;99.90;;;;;;4939164;28;88719;-35
2022/09/23 06:03:59;;;;;;;17.38;15.63;;;7.80;99.90;;;;;;4949374;28;90070;-30
2022/09/23 06:06:30;;;;;;;16.63;14.88;;;7.80;99.90;;;;;;4955848;28;90175;-32
2022/09/23 06:08:57;;;;;;;16.73;15.02;;;7.80;99.90;;;;;;4942998;28;90092;-30
2022/09/23 06:11:23;;;;;;;24.80;17.75;;;7.80;99.90;;;;;;4954323;28;89845;-31
2022/09/23 06:13:52;;;;;;;21.35;16.17;;;7.90;99.90;;;;;;4946768;28;89240;-34
2022/09/23 06:16:18;;;;;;;21.52;17.23;;;7.90;99.90;;;;;;4957010;28;90637;-32
2022/09/23 06:18:44;;;;;;;27.30;17.70;;;8.00;99.90;;;;;;4958891;28;89636;-30
2022/09/23 06:21:15;;;;;;;22.33;18.35;;;8.00;99.90;;;;;;4957399;28;89271;-31
2022/09/23 06:23:42;;;;;;;20.02;16.50;;;8.10;99.90;;;;;;4958693;28;89186;-34
2022/09/23 06:26:10;;;;;;;23.15;18.02;;;8.10;99.90;;;;;;4957821;28;90290;-31
2022/09/23 06:28:37;;;;;;;19.77;17.50;;;8.20;99.90;;;;;;4953798;28;90420;-30
2022/09/23 06:31:07;;;;;;;19.30;17.23;;;8.30;99.90;;;;;;4948472;28;90925;-32
2022/09/23 06:33:33;;;;;;;22.45;17.23;;;8.40;99.90;;;;;;4937700;28;88553;-33
2022/09/23 06:36:01;;;;;;;18.85;16.75;;;8.50;99.90;;;;;;4938684;28;89677;-30
2022/09/23 06:38:27;;;;;;;18.00;16.33;;;8.60;99.90;;;;;;4967713;28;89787;-29
2022/09/23 06:40:54;;;;;;;26.80;19.02;;;8.70;99.90;;;;;;4977972;28;89571;-33
2022/09/23 06:43:22;;;;;;;27.80;17.45;;;8.90;99.90;;;;;;4977728;28;89180;-29
2022/09/23 06:45:55;;;;;;;18.63;16.92;;;9.00;99.90;;;;;;4977908;28;90226;-31
2022/09/23 06:48:22;;;;;;;18.92;15.65;;;9.20;99.90;;;;;;4951400;28;89725;-31
2022/09/23 06:50:49;;;;;;;17.13;15.40;;;9.40;99.90;;;;;;4956052;28;89856;-31
2022/09/23 06:53:15;;;;;;;17.77;15.40;;;9.50;99.90;;;;;;4948385;28;89748;-31
2022/09/23 06:55:42;;;;;;;15.32;13.82;;;9.70;99.90;;;;;;4949370;28;90309;-33
2022/09/23 06:58:08;;;;;;;18.48;16.42;;;9.80;99.90;;;;;;4954839;28;90426;-31
2022/09/23 07:00:35;;;;;;;16.75;15.25;;;9.90;99.90;;;;;;4950793;28;90201;-31
2022/09/23 07:03:04;;;;;;;17.50;14.73;;;10.00;99.90;;;;;;4957844;28;89764;-33
2022/09/23 07:05:30;;;;;;;17.23;14.95;;;10.20;99.90;;;;;;4958009;28;90608;-31
2022/09/23 07:07:55;;;;;;;16.20;14.50;;;10.20;99.90;;;;;;4957490;28;89260;-31
2022/09/23 07:10:21;;;;;;;18.08;15.98;;;10.30;99.90;;;;;;4948576;28;89504;-33
2022/09/23 07:12:46;;;;;;;16.65;15.13;;;10.40;99.90;;;;;;4957744;28;89720;-29
2022/09/23 07:15:12;;;;;;;19.63;14.75;;;10.40;99.90;;;;;;4948417;28;90354;-33
2022/09/23 07:17:40;;;;;;;16.77;15.18;;;10.50;99.90;;;;;;4948527;28;90547;-30
2022/09/23 07:20:06;;;;;;;15.80;14.23;;;10.60;99.90;;;;;;4957022;28;89682;-31
2022/09/23 07:22:32;;;;;;;17.98;16.15;;;10.60;99.90;;;;;;4957062;28;89305;-34
2022/09/23 07:24:57;;;;;;;19.20;15.23;;;10.70;99.90;;;;;;4952493;28;90894;-31
2022/09/23 07:27:26;;;;;;;17.83;16.10;;;10.70;99.90;;;;;;4949344;28;88991;-31
2022/09/23 07:29:52;;;;;;;15.70;14.15;;;10.70;99.90;;;;;;4956587;28;89494;-33
2022/09/23 07:32:18;;;;;;;18.70;16.85;;;10.80;99.90;;;;;;4943051;28;88488;-31
2022/09/23 07:34:45;;;;;;;19.98;14.30;;;10.80;99.90;;;;;;4951177;28;90263;-32
2022/09/23 07:37:12;;;;;;;15.95;14.38;;;10.90;99.90;;;;;;4944807;28;89544;-36
2022/09/23 07:39:39;;;;;;;23.38;17.70;;;11.00;99.90;;;;;;4976901;28;89860;-34
2022/09/23 07:42:05;;;;;;;19.48;17.08;;;11.10;99.90;;;;;;4976848;28;89275;-31
2022/09/23 07:44:31;;;;;;;22.65;19.50;;;11.10;99.90;;;;;;4975375;28;90466;-31
2022/09/23 07:46:57;;;;;;;17.42;15.70;;;11.20;99.90;;;;;;4978119;28;90810;-32
2022/09/23 07:49:24;;;;;;;21.75;17.08;;;11.30;99.90;;;;;;4972843;28;89954;-31
2022/09/23 07:51:51;;;;;;;17.67;14.63;;;11.40;99.90;;;;;;4965566;28;89430;-33
2022/09/23 07:54:18;;;;;;;22.30;16.27;;;11.40;99.90;;;;;;4976144;28;90328;-33
2022/09/23 07:56:44;;;;;;;20.05;15.23;;;11.50;99.90;;;;;;4976302;28;89670;-31
2022/09/23 07:59:14;;;;;;;14.63;13.32;;;11.60;99.90;;;;;;4976367;28;88529;-30
2022/09/23 08:01:45;;;;;;;15.90;14.40;;;11.60;99.90;;;;;;4976301;28;88526;-30
2022/09/23 08:04:20;;;;;;;19.15;14.07;;;11.70;99.90;;;;;;4976402;28;90432;-33
2022/09/23 08:06:53;;;;;;;18.23;15.23;;;11.70;99.90;;;;;;4976198;28;90589;-35
2022/09/23 08:09:21;;;;;;;15.93;14.30;;;11.80;99.90;;;;;;4975949;28;90184;-30
2022/09/23 08:11:48;;;;;;;15.70;14.25;;;11.90;99.90;;;;;;4958141;28;88642;-30
2022/09/23 08:14:16;;;;;;;16.92;14.85;;;12.00;99.90;;;;;;4976425;28;90238;-33
2022/09/23 08:16:44;;;;;;;15.38;13.98;;;12.10;99.90;;;;;;4973185;28;90777;-31
2022/09/23 08:19:13;;;;;;;20.38;15.57;;;12.10;99.90;;;;;;4966778;28;89003;-31
2022/09/23 08:21:40;;;;;;;14.07;12.65;;;12.20;99.90;;;;;;4976305;28;88961;-31
2022/09/23 08:24:13;;;;;;;17.37;13.83;;;12.30;99.90;;;;;;4976049;28;90306;-31
2022/09/23 08:26:39;;;;;;;15.98;14.48;;;12.40;99.90;;;;;;4976117;28;88749;-31
2022/09/23 08:29:05;;;;;;;19.42;13.02;;;12.50;99.90;;;;;;4975668;28;89638;-33
2022/09/23 08:31:31;;;;;;;15.52;14.02;;;12.50;99.90;;;;;;4976265;28;88899;-32
2022/09/23 08:33:57;;;;;;;15.77;13.23;;;12.50;99.90;;;;;;4976271;28;90125;-33
2022/09/23 08:36:24;;;;;;;16.52;14.18;;;12.60;99.90;;;;;;4975712;28;90106;-32
2022/09/23 08:38:50;;;;;;;13.93;12.65;;;12.70;99.90;;;;;;4976043;28;92459;-31
2022/09/23 08:41:49;;;;;;;14.38;12.88;;;12.70;99.90;;;;;;4975530;28;89363;-33
2022/09/23 08:44:18;;;;;;;14.77;13.18;;;12.80;99.90;;;;;;4978589;28;90055;-30
2022/09/23 08:46:55;;;;;;;12.40;11.20;;;12.90;99.90;;;;;;4980025;28;90108;-32
2022/09/23 08:49:30;;;;;;;14.52;13.02;;;12.90;99.90;;;;;;4941881;28;89523;-30
2022/09/23 08:52:05;;;;;;;13.80;12.40;;;13.00;99.90;;;;;;4939869;28;89365;-32
2022/09/23 08:54:31;;;;;;;14.10;12.80;;;13.10;99.90;;;;;;4939496;28;90093;-33
2022/09/23 08:57:00;;;;;;;13.05;11.70;;;13.10;99.90;;;;;;4938942;28;90892;-34
2022/09/23 08:59:41;;;;;;;16.55;13.27;;;13.20;99.90;;;;;;4945277;28;90413;-31
2022/09/23 09:02:26;;;;;;;14.85;13.18;;;13.30;99.90;;;;;;4944573;28;89284;-33
2022/09/23 09:04:55;;;;;;;12.40;10.65;;;13.40;99.90;;;;;;4940089;28;90112;-31
2022/09/23 09:07:28;;;;;;;11.95;10.80;;;13.40;99.90;;;;;;4938670;28;89560;-32
2022/09/23 09:10:10;;;;;;;13.55;10.60;;;13.50;99.90;;;;;;4947941;28;89032;-32
2022/09/23 09:13:07;;;;;;;13.73;12.50;;;13.50;99.90;;;;;;4953554;28;90321;-32
2022/09/23 09:15:45;;;;;;;16.23;11.43;;;13.60;99.90;;;;;;4928547;28;89617;-33
2022/09/23 09:18:18;;;;;;;17.13;13.75;;;13.70;99.90;;;;;;4958794;28;90529;-32
2022/09/23 09:20:57;;;;;;;13.48;11.93;;;13.80;99.90;;;;;;4959866;28;91130;-31
2022/09/23 09:23:45;;;;;;;12.57;11.38;;;13.90;99.90;;;;;;4955356;28;88178;-30
2022/09/23 09:26:21;;;;;;;13.90;11.80;;;14.00;99.90;;;;;;4953838;28;90260;-31
2022/09/23 09:28:53;;;;;;;22.77;11.80;;;14.10;99.90;;;;;;4963376;28;89919;-31
2022/09/23 09:31:27;;;;;;;15.52;12.63;;;14.20;99.90;;;;;;4943059;28;90362;-33
2022/09/23 09:34:05;;;;;;;13.73;10.30;;;14.30;99.90;;;;;;4938622;28;89595;-32
2022/09/23 09:36:46;;;;;;;15.52;9.90;;;14.30;99.90;;;;;;4958631;28;91683;-31
2022/09/23 09:39:14;;;;;;;12.88;10.82;;;14.40;99.90;;;;;;4972860;28;89631;-33
2022/09/23 09:41:43;;;;;;;12.07;10.75;;;14.50;99.90;;;;;;4979087;28;90280;-34
2022/09/23 09:44:30;;;;;;;12.23;10.43;;;14.50;99.90;;;;;;4978537;28;88317;-33
2022/09/23 09:47:14;;;;;;;11.32;9.88;;;14.50;99.90;;;;;;4979947;28;88823;-31
2022/09/23 09:49:47;;;;;;;10.98;9.88;;;14.60;99.90;;;;;;4944387;28;89804;-31
2022/09/23 09:52:21;;;;;;;14.32;11.32;;;14.70;99.90;;;;;;4938252;28;90008;-33
2022/09/23 09:54:48;;;;;;;14.90;11.95;;;14.70;99.90;;;;;;4952429;28;88755;-31
2022/09/23 09:57:37;;;;;;;12.93;11.25;;;14.90;99.90;;;;;;4944646;28;89558;-31
2022/09/23 10:00:21;;;;;;;10.98;9.90;;;15.00;99.90;;;;;;4941958;28;90121;-33
2022/09/23 10:02:57;;;;;;;10.43;9.10;;;15.20;99.90;;;;;;4958930;28;89464;-33
2022/09/23 10:05:27;;;;;;;16.25;11.18;;;15.30;99.90;;;;;;4954943;28;90335;-33
2022/09/23 10:07:53;;;;;;;11.95;10.85;;;15.50;99.90;;;;;;4949696;28;90803;-32
2022/09/23 10:10:25;;;;;;;11.45;10.35;;;15.60;99.90;;;;;;4958517;28;89661;-32
2022/09/23 10:12:51;;;;;;;10.85;9.05;;;15.80;99.90;;;;;;4964876;28;89984;-34
2022/09/23 10:15:30;;;;;;;11.20;10.10;;;15.90;99.90;;;;;;4978592;28;88637;-32
2022/09/23 10:18:00;;;;;;;10.90;9.20;;;16.00;99.90;;;;;;4950606;28;90720;-31
2022/09/23 10:20:35;;;;;;;10.07;8.93;;;16.10;99.90;;;;;;4978993;28;90536;-32
2022/09/23 10:23:13;;;;;;;11.13;9.82;;;16.30;99.90;;;;;;4960712;28;89049;-30
2022/09/23 10:25:40;;;;;;;11.50;10.20;;;16.30;99.90;;;;;;4979295;28;89609;-35
2022/09/23 10:28:36;;;;;;;11.13;9.40;;;16.20;99.90;;;;;;4977974;28;90108;-32
2022/09/23 10:31:26;;;;;;;10.27;9.20;;;16.20;99.90;;;;;;4978451;28;89591;-35
2022/09/23 10:34:00;;;;;;;10.98;9.88;;;16.20;99.90;;;;;;4970609;28;89780;-30
2022/09/23 10:36:32;;;;;;;12.10;9.82;;;16.10;99.90;;;;;;4978021;28;89348;-34
2022/09/23 10:48:17;;;;;;;9.43;8.57;;;16.00;99.90;;;;;;4977857;28;88922;-32
2022/09/23 10:50:54;;;;;;;10.70;9.60;;;16.00;99.90;;;;;;4950650;28;90442;-33
2022/09/23 10:53:41;;;;;;;15.35;9.00;;;15.90;99.90;;;;;;4944376;28;90164;-31
2022/09/23 10:56:09;;;;;;;13.50;11.00;;;15.90;99.90;;;;;;4966543;28;91348;-31
2022/09/23 10:58:59;;;;;;;11.00;10.00;;;15.90;99.90;;;;;;4977386;28;88588;-31
2022/09/23 11:01:48;;;;;;;10.40;9.45;;;15.90;99.90;;;;;;4977595;28;91775;-31
2022/09/23 11:04:53;;;;;;;11.70;10.43;;;15.80;99.90;;;;;;4978102;28;89774;-30
2022/09/23 11:07:19;;;;;;;11.93;10.65;;;15.80;99.90;;;;;;4976908;28;89293;-31
2022/09/23 11:09:51;;;;;;;12.07;10.48;;;15.70;99.90;;;;;;4976802;28;90358;-34
2022/09/23 11:12:46;;;;;;;12.45;10.65;;;15.70;99.90;;;;;;4962564;28;89872;-33
2022/09/23 11:15:39;;;;;;;13.50;10.95;;;15.70;99.90;;;;;;4977366;28;89985;-34
2022/09/23 11:18:36;;;;;;;13.90;9.63;;;15.70;99.90;;;;;;4977185;28;90356;-31
2022/09/23 11:21:20;;;;;;;12.95;11.63;;;15.70;99.90;;;;;;4978145;28;88057;-31
2022/09/23 11:24:26;;;;;;;11.48;10.32;;;15.70;99.90;;;;;;4971369;28;89913;-32
2022/09/23 11:27:10;;;;;;;12.43;11.23;;;15.70;99.90;;;;;;4977935;28;89753;-33
2022/09/23 11:30:06;;;;;;;10.30;9.38;;;15.60;99.90;;;;;;4977441;28;90114;-31
2022/09/23 11:32:50;;;;;;;14.80;10.90;;;15.60;99.90;;;;;;4977325;28;89316;-32
2022/09/23 11:35:27;;;;;;;13.52;12.15;;;15.60;99.90;;;;;;4977234;28;90228;-31
2022/09/23 11:38:10;;;;;;;11.60;10.38;;;15.60;99.90;;;;;;4976787;28;89732;-32
2022/09/23 11:40:38;;;;;;;10.32;9.43;;;15.70;99.90;;;;;;4976271;28;90890;-32
2022/09/23 11:43:14;;;;;;;12.50;10.82;;;15.70;99.90;;;;;;4978045;28;89190;-32
2022/09/23 11:45:48;;;;;;;10.48;9.20;;;15.70;99.90;;;;;;4976845;28;91365;-32
2022/09/23 11:48:23;;;;;;;12.18;10.80;;;15.70;99.90;;;;;;4977509;28;89693;-34
2022/09/23 11:51:00;;;;;;;13.82;11.30;;;15.70;99.90;;;;;;4977160;28;91312;-32
2022/09/23 11:53:46;;;;;;;13.27;11.02;;;15.80;99.90;;;;;;4976412;28;88855;-33
2022/09/23 11:56:27;;;;;;;11.68;10.52;;;15.80;99.90;;;;;;4976508;28;91240;-34
2022/09/23 11:59:17;;;;;;;14.75;10.43;;;15.80;99.90;;;;;;4975940;28;90195;-33
2022/09/23 12:01:53;;;;;;;12.32;10.98;;;15.90;99.90;;;;;;4977505;28;90319;-31
2022/09/23 12:04:38;;;;;;;12.25;10.40;;;15.80;99.90;;;;;;4975780;28;88935;-31
2022/09/23 12:07:07;;;;;;;12.73;10.00;;;15.80;99.90;;;;;;4977375;28;90001;-32
2022/09/23 12:09:51;;;;;;;;;;;15.80;99.90;;;;;;4977240;28;89606;-31
2022/09/23 12:12:31;;;;;;;11.57;10.38;;;15.80;99.90;;;;;;4978100;28;89907;-30
2022/09/23 12:15:18;;;;;;;11.35;10.07;;;15.80;99.90;;;;;;4976814;28;89722;-32
2022/09/23 12:17:57;;;;;;;18.75;10.93;;;15.80;99.90;;;;;;4980051;28;90712;-29
2022/09/23 12:20:41;;;;;;;10.90;9.95;;;15.80;99.90;;;;;;4982859;28;88059;-31
2022/09/23 12:23:24;;;;;;;12.38;11.20;;;15.80;99.90;;;;;;4976889;28;89009;-33
2022/09/23 12:25:56;;;;;;;12.95;10.77;;;15.80;99.90;;;;;;4975576;28;88048;-34
2022/09/23 12:28:31;;;;;;;12.48;11.27;;;15.80;99.90;;;;;;4975620;28;91563;-32
2022/09/23 12:31:00;;;;;;;15.52;9.80;;;15.80;99.90;;;;;;4975938;28;90289;-30
2022/09/23 12:33:29;;;;;;;12.63;11.23;;;15.80;99.90;;;;;;4975927;28;90503;-33
2022/09/23 12:36:06;;;;;;;11.20;10.00;;;15.90;99.90;;;;;;4976566;28;89756;-34
2022/09/23 12:38:56;;;;;;;12.88;9.70;;;15.90;99.90;;;;;;4964694;28;89222;-33
2022/09/23 12:41:22;;;;;;;13.35;10.63;;;16.00;99.90;;;;;;4963324;28;89817;-32
2022/09/23 12:43:59;;;;;;;11.82;10.73;;;16.00;99.90;;;;;;5009842;22;89789;-30
2022/09/23 12:46:26;;;;;;;12.55;11.27;;;16.00;99.90;;;;;;4982160;28;90266;-30
2022/09/23 12:48:56;;;;;;;13.10;10.13;;;16.00;99.90;;;;;;4993353;28;90327;-32
2022/09/23 12:51:22;;;;;;;12.02;8.43;;;16.10;99.90;;;;;;4991082;28;89804;-30
2022/09/23 12:53:52;;;;;;;11.35;8.45;;;16.10;99.90;;;;;;4971650;28;89641;-32
2022/09/23 12:56:30;;;;;;;11.65;9.38;;;16.10;99.90;;;;;;4962724;28;89769;-33
2022/09/23 12:59:12;;;;;;;12.95;10.02;;;16.20;99.90;;;;;;4979846;28;90333;-33
2022/09/23 13:01:39;;;;;;;12.23;9.77;;;16.20;99.90;;;;;;4965552;28;88901;-30
2022/09/23 13:07:06;;;;;;;9.98;8.98;;;16.30;99.90;;;;;;4971244;28;88422;-33
2022/09/23 13:09:39;;;;;;;11.38;10.18;;;16.40;99.90;;;;;;4973757;28;89381;-33
2022/09/23 13:12:15;;;;;;;11.98;10.80;;;16.30;99.90;;;;;;4958984;28;89505;-32
2022/09/23 13:14:44;;;;;;;13.55;11.30;;;16.40;99.90;;;;;;4962457;28;89752;-32
2022/09/23 13:17:28;;;;;;;10.80;9.57;;;16.40;99.90;;;;;;4966737;28;88380;-33